Time;durP1;ratioP1;P1;durP2;ratioP2;P2;SDS_P1;SDS_P2;PMS_P1;PMS_P2;Temp;Humidity;BMP_temperature;BMP_pressure;BME280_temperature;BME280_humidity;BME280_pressure;Samples;Min_cycle;Max_cycle;Signal;HPM_P1;HPM_P2
2022/10/08 00:00:57;;;;;;;8.98;3.08;;;12.50;99.90;;;;;;5073479;28;20050;-31
2022/10/08 00:03:25;;;;;;;6.03;3.20;;;12.60;99.90;;;;;;5050942;28;20051;-32
2022/10/08 00:06:11;;;;;;;10.43;3.50;;;12.60;99.90;;;;;;5054574;28;20090;-31
2022/10/08 00:08:39;;;;;;;8.48;3.47;;;12.60;99.90;;;;;;5063933;28;20181;-30
2022/10/08 00:11:12;;;;;;;10.73;3.10;;;12.60;99.90;;;;;;5070844;28;20047;-31
2022/10/08 00:13:40;;;;;;;8.13;3.25;;;12.60;99.90;;;;;;5047802;28;20535;-30
2022/10/08 00:16:11;;;;;;;7.55;3.00;;;12.60;99.90;;;;;;5070461;28;20043;-33
2022/10/08 00:18:42;;;;;;;9.25;3.35;;;12.60;99.90;;;;;;5089747;28;20067;-30
2022/10/08 00:21:15;;;;;;;6.18;3.15;;;12.60;99.90;;;;;;5067941;28;20498;-31
2022/10/08 00:23:42;;;;;;;8.60;2.97;;;12.70;99.90;;;;;;5067822;28;20524;-33
2022/10/08 00:26:08;;;;;;;6.47;2.95;;;12.70;99.90;;;;;;5057833;28;20036;-33
2022/10/08 00:28:36;;;;;;;11.13;3.47;;;12.70;99.90;;;;;;5066801;28;20119;-31
2022/10/08 00:31:07;;;;;;;10.80;3.50;;;12.70;99.90;;;;;;5062520;28;20119;-31
2022/10/08 00:33:35;;;;;;;7.55;3.45;;;12.60;99.90;;;;;;5072820;28;20043;-32
2022/10/08 00:36:06;;;;;;;12.38;4.38;;;12.60;99.90;;;;;;5067449;28;20036;-31
2022/10/08 00:38:32;;;;;;;12.38;3.38;;;12.60;99.90;;;;;;5074080;28;20059;-32
2022/10/08 00:40:59;;;;;;;10.65;3.75;;;12.50;99.90;;;;;;5064451;28;20036;-31
2022/10/08 00:43:43;;;;;;;11.38;4.03;;;12.40;99.90;;;;;;5069096;28;20097;-35
2022/10/08 00:46:30;;;;;;;11.57;3.42;;;12.40;99.90;;;;;;5065069;28;20044;-31
2022/10/08 00:49:13;;;;;;;12.18;4.25;;;12.40;99.90;;;;;;5066105;28;20040;-32
2022/10/08 00:51:54;;;;;;;7.60;3.65;;;12.40;99.90;;;;;;5071484;28;20424;-33
2022/10/08 00:54:22;;;;;;;8.23;3.72;;;12.40;99.90;;;;;;5068988;28;20039;-33
2022/10/08 00:56:51;;;;;;;11.25;3.88;;;12.30;99.90;;;;;;5066778;28;20050;-33
2022/10/08 00:59:17;;;;;;;11.10;4.32;;;12.30;99.90;;;;;;5067425;28;20044;-31
2022/10/08 01:01:43;;;;;;;13.07;4.88;;;12.30;99.90;;;;;;5065224;28;20456;-32
2022/10/08 01:04:10;;;;;;;11.73;4.80;;;12.20;99.90;;;;;;5073094;28;20447;-31
2022/10/08 01:06:52;;;;;;;11.30;4.43;;;12.20;99.90;;;;;;5066437;28;20044;-30
2022/10/08 01:09:39;;;;;;;9.73;4.53;;;12.20;99.90;;;;;;5087383;28;20032;-33
2022/10/08 01:12:40;;;;;;;7.18;4.20;;;12.20;99.90;;;;;;5068747;28;20036;-32
2022/10/08 01:15:31;;;;;;;10.57;4.07;;;12.20;99.90;;;;;;5061234;28;20050;-33
2022/10/08 01:18:14;;;;;;;12.65;5.13;;;12.20;99.90;;;;;;5063489;28;20044;-35
2022/10/08 01:21:02;;;;;;;7.97;3.67;;;12.20;99.90;;;;;;5064882;28;20071;-31
2022/10/08 01:23:40;;;;;;;6.78;3.53;;;12.20;99.90;;;;;;5063321;28;20044;-34
2022/10/08 01:26:34;;;;;;;7.65;3.80;;;12.20;99.90;;;;;;5065659;28;20072;-30
2022/10/08 01:29:08;;;;;;;5.10;3.17;;;12.20;99.90;;;;;;5066709;28;20131;-31
2022/10/08 01:31:41;;;;;;;8.90;4.22;;;12.20;99.90;;;;;;5068981;28;20040;-31
2022/10/08 01:34:12;;;;;;;6.63;3.87;;;12.20;99.90;;;;;;5072375;28;20038;-32
2022/10/08 01:36:44;;;;;;;6.95;4.25;;;12.20;99.90;;;;;;5082532;28;20428;-31
2022/10/08 01:39:15;;;;;;;10.63;4.93;;;12.30;99.90;;;;;;5069110;28;20035;-31
2022/10/08 01:41:47;;;;;;;10.60;4.38;;;12.30;99.90;;;;;;5064665;28;20063;-31
2022/10/08 01:44:28;;;;;;;10.07;5.38;;;12.30;99.90;;;;;;5079108;28;20043;-32
2022/10/08 01:46:58;;;;;;;9.27;5.28;;;12.20;99.90;;;;;;5059801;28;20051;-31
2022/10/08 01:49:28;;;;;;;8.10;4.80;;;12.20;99.90;;;;;;5067109;28;20532;-33
2022/10/08 01:52:07;;;;;;;9.23;5.07;;;12.30;99.90;;;;;;5073761;28;20044;-29
2022/10/08 01:54:34;;;;;;;8.25;5.10;;;12.30;99.90;;;;;;5055099;28;20032;-33
2022/10/08 01:57:04;;;;;;;5.80;4.75;;;12.20;99.90;;;;;;5072658;28;20054;-32
2022/10/08 01:59:38;;;;;;;6.80;4.55;;;12.20;99.90;;;;;;5067531;28;20409;-32
2022/10/08 02:02:22;;;;;;;8.35;5.00;;;12.20;99.90;;;;;;5083780;28;20125;-32
2022/10/08 02:04:50;;;;;;;7.10;4.65;;;12.20;99.90;;;;;;5061620;28;20062;-31
2022/10/08 02:07:29;;;;;;;7.03;3.85;;;12.20;99.90;;;;;;5071663;28;20048;-34
2022/10/08 02:10:17;;;;;;;7.45;4.35;;;12.20;99.90;;;;;;5065017;28;20089;-34
2022/10/08 02:12:43;;;;;;;8.98;5.07;;;12.10;99.90;;;;;;5058448;28;20044;-33
2022/10/08 02:15:22;;;;;;;7.07;4.55;;;12.20;99.90;;;;;;5071857;28;20036;-32
2022/10/08 02:18:15;;;;;;;6.55;4.13;;;12.20;99.90;;;;;;5056506;28;20093;-32
2022/10/08 02:20:54;;;;;;;8.77;5.57;;;12.20;99.90;;;;;;5089466;28;20051;-34
2022/10/08 02:23:31;;;;;;;8.60;4.18;;;12.20;99.90;;;;;;5074835;28;20480;-34
2022/10/08 02:25:58;;;;;;;7.03;4.50;;;12.20;99.90;;;;;;5060138;28;20059;-32
2022/10/08 02:28:33;;;;;;;6.13;4.40;;;12.20;99.90;;;;;;5065809;28;20166;-33
2022/10/08 02:31:31;;;;;;;8.48;4.53;;;12.20;99.90;;;;;;5074406;28;20032;-33
2022/10/08 02:34:10;;;;;;;4.90;3.95;;;12.20;99.90;;;;;;5057717;28;20048;-32
2022/10/08 02:36:39;;;;;;;4.90;3.78;;;12.10;99.90;;;;;;5076122;28;20069;-36
2022/10/08 02:39:06;;;;;;;4.78;3.38;;;12.10;99.90;;;;;;5076776;28;20044;-32
2022/10/08 02:41:46;;;;;;;6.68;4.03;;;12.10;99.90;;;;;;5071305;28;20047;-34
2022/10/08 02:44:28;;;;;;;7.07;3.75;;;12.10;99.90;;;;;;5072014;28;20100;-31
2022/10/08 02:46:58;;;;;;;8.05;3.80;;;12.10;99.90;;;;;;5070677;28;20044;-30
2022/10/08 02:49:30;;;;;;;7.28;4.07;;;12.10;99.90;;;;;;5074422;28;20504;-31
2022/10/08 02:52:00;;;;;;;4.63;3.80;;;12.10;99.90;;;;;;5064657;28;20035;-34
2022/10/08 02:54:31;;;;;;;6.45;3.47;;;12.10;99.90;;;;;;5047306;28;20044;-31
2022/10/08 02:57:26;;;;;;;5.97;3.35;;;12.10;99.90;;;;;;5065542;28;20051;-30
2022/10/08 02:59:52;;;;;;;6.22;3.53;;;12.10;99.90;;;;;;5069462;28;20054;-30
2022/10/08 03:02:35;;;;;;;4.63;3.40;;;12.00;99.90;;;;;;5073466;28;20040;-31
2022/10/08 03:05:05;;;;;;;6.82;3.85;;;12.00;99.90;;;;;;5061523;28;20520;-29
2022/10/08 03:07:33;;;;;;;8.38;3.70;;;11.90;99.90;;;;;;5074735;28;20036;-29
2022/10/08 03:10:04;;;;;;;7.60;3.40;;;11.80;99.90;;;;;;5058390;28;20047;-31
2022/10/08 03:12:31;;;;;;;7.47;3.60;;;11.80;99.90;;;;;;5071428;28;20505;-31
2022/10/08 03:14:57;;;;;;;7.30;4.00;;;11.70;99.90;;;;;;5067688;28;20040;-31
2022/10/08 03:17:29;;;;;;;6.47;3.88;;;11.70;99.90;;;;;;5066611;28;20041;-29
2022/10/08 03:19:56;;;;;;;5.30;3.22;;;11.60;99.90;;;;;;5074737;28;20075;-29
2022/10/08 03:22:23;;;;;;;5.35;3.50;;;11.60;99.90;;;;;;5071235;28;20047;-30
2022/10/08 03:24:48;;;;;;;6.50;3.58;;;11.60;99.90;;;;;;5068492;28;20517;-30
2022/10/08 03:27:14;;;;;;;6.93;3.58;;;11.60;99.90;;;;;;5073287;28;20036;-30
2022/10/08 03:29:40;;;;;;;6.28;3.70;;;11.50;99.90;;;;;;5069911;28;20032;-30
2022/10/08 03:32:06;;;;;;;4.55;3.50;;;11.50;99.90;;;;;;5074446;28;20043;-29
2022/10/08 03:34:32;;;;;;;8.05;3.92;;;11.40;99.90;;;;;;5060819;28;20029;-30
2022/10/08 03:36:58;;;;;;;6.90;3.80;;;11.30;99.90;;;;;;5052918;28;20051;-30
2022/10/08 03:39:24;;;;;;;7.35;3.40;;;11.30;99.90;;;;;;5066735;28;20083;-30
2022/10/08 03:41:50;;;;;;;5.18;3.58;;;11.20;99.90;;;;;;5070948;28;20409;-31
2022/10/08 03:44:15;;;;;;;6.35;3.67;;;11.20;99.90;;;;;;5065540;28;20108;-30
2022/10/08 03:46:41;;;;;;;5.82;3.92;;;11.10;99.90;;;;;;5074160;28;20093;-30
2022/10/08 03:49:07;;;;;;;5.50;3.53;;;11.10;99.90;;;;;;5074289;28;20036;-29
2022/10/08 03:51:33;;;;;;;7.07;4.40;;;11.10;99.90;;;;;;5072952;28;20546;-30
2022/10/08 03:53:59;;;;;;;7.80;3.90;;;11.00;99.90;;;;;;5069046;28;20693;-30
2022/10/08 03:56:24;;;;;;;6.93;4.10;;;11.00;99.90;;;;;;5072964;28;20401;-30
2022/10/08 03:58:55;;;;;;;5.60;3.72;;;11.00;99.90;;;;;;5063355;28;20044;-31
2022/10/08 04:01:22;;;;;;;7.53;4.20;;;10.90;99.90;;;;;;5062872;28;20040;-33
2022/10/08 04:03:48;;;;;;;5.55;4.18;;;10.90;99.90;;;;;;5058722;28;20038;-30
2022/10/08 04:06:14;;;;;;;6.85;3.80;;;10.90;99.90;;;;;;5065799;28;20037;-30
2022/10/08 04:08:39;;;;;;;6.55;3.88;;;10.80;99.90;;;;;;5043563;28;20039;-29
2022/10/08 04:11:08;;;;;;;9.38;4.88;;;10.90;99.90;;;;;;5070968;28;20064;-31
2022/10/08 04:13:35;;;;;;;7.75;4.10;;;10.80;99.90;;;;;;5073577;28;20063;-30
2022/10/08 04:16:15;;;;;;;10.07;4.20;;;10.80;99.90;;;;;;5073347;28;20031;-29
2022/10/08 04:18:42;;;;;;;8.05;4.93;;;10.80;99.90;;;;;;5073550;28;20111;-30
2022/10/08 04:21:10;;;;;;;7.80;4.50;;;10.80;99.90;;;;;;5072075;28;20035;-29
2022/10/08 04:23:38;;;;;;;5.88;4.03;;;10.80;99.90;;;;;;5059550;28;20040;-30
2022/10/08 04:26:05;;;;;;;8.88;5.40;;;10.80;99.90;;;;;;5064111;28;20036;-30
2022/10/08 04:28:31;;;;;;;7.65;5.32;;;10.90;99.90;;;;;;5073428;28;20035;-29
2022/10/08 04:31:11;;;;;;;7.13;4.80;;;10.90;99.90;;;;;;5072997;28;20036;-30
2022/10/08 04:33:37;;;;;;;7.72;4.97;;;10.90;99.90;;;;;;5060001;28;20032;-31
2022/10/08 04:36:08;;;;;;;10.27;4.65;;;11.00;99.90;;;;;;5061451;28;20033;-30
2022/10/08 04:38:34;;;;;;;8.05;5.05;;;11.00;99.90;;;;;;5054181;28;20042;-30
2022/10/08 04:41:05;;;;;;;9.60;5.60;;;11.00;99.90;;;;;;5066495;28;20406;-31
2022/10/08 04:43:32;;;;;;;7.20;5.88;;;11.00;99.90;;;;;;5066558;28;20048;-29
2022/10/08 04:45:57;;;;;;;10.38;5.43;;;11.00;99.90;;;;;;5058859;28;20486;-28
2022/10/08 04:48:23;;;;;;;7.40;5.18;;;11.10;99.90;;;;;;5061678;28;20040;-30
2022/10/08 04:50:54;;;;;;;11.43;5.85;;;11.10;99.90;;;;;;5067902;28;20050;-33
2022/10/08 04:53:20;;;;;;;10.15;5.28;;;11.10;99.90;;;;;;5061135;28;20040;-30
2022/10/08 04:55:45;;;;;;;8.38;5.55;;;11.10;99.90;;;;;;5066200;28;20115;-31
2022/10/08 04:58:11;;;;;;;10.43;5.63;;;11.10;99.90;;;;;;5072621;28;20094;-30
2022/10/08 05:00:37;;;;;;;9.65;4.97;;;11.20;99.90;;;;;;5085301;28;20374;-31
2022/10/08 05:03:03;;;;;;;9.35;5.32;;;11.20;99.90;;;;;;5067032;28;20040;-30
2022/10/08 05:05:28;;;;;;;10.45;5.20;;;11.20;99.90;;;;;;5073159;28;20067;-31
2022/10/08 05:07:55;;;;;;;10.23;5.40;;;11.20;99.90;;;;;;5053407;28;20040;-30
2022/10/08 05:10:25;;;;;;;8.93;4.72;;;11.20;99.90;;;;;;5054221;28;20036;-30
2022/10/08 05:12:51;;;;;;;9.98;4.97;;;11.20;99.90;;;;;;5059930;28;20062;-32
2022/10/08 05:15:17;;;;;;;8.80;4.38;;;11.20;99.90;;;;;;5073413;28;20028;-29
2022/10/08 05:17:43;;;;;;;11.43;4.97;;;11.20;99.90;;;;;;5068578;28;20106;-30
2022/10/08 05:20:09;;;;;;;6.38;4.28;;;11.10;99.90;;;;;;5069198;28;20490;-30
2022/10/08 05:22:34;;;;;;;7.68;4.82;;;11.10;99.90;;;;;;5061542;28;20604;-29
2022/10/08 05:25:00;;;;;;;9.88;4.70;;;11.10;99.90;;;;;;5070407;28;20096;-30
2022/10/08 05:27:26;;;;;;;7.75;4.65;;;11.10;99.90;;;;;;5055235;28;20044;-29
2022/10/08 05:29:51;;;;;;;8.65;4.72;;;11.10;99.90;;;;;;5061307;28;20044;-31
2022/10/08 05:32:17;;;;;;;9.82;4.60;;;11.10;99.90;;;;;;5067786;28;20605;-32
2022/10/08 05:34:43;;;;;;;10.15;3.58;;;11.20;99.90;;;;;;5065213;28;20033;-29
2022/10/08 05:37:09;;;;;;;5.80;4.07;;;11.10;99.90;;;;;;5073208;28;20035;-29
2022/10/08 05:39:34;;;;;;;6.50;3.00;;;11.10;99.90;;;;;;5070250;28;20032;-30
2022/10/08 05:42:00;;;;;;;8.95;3.42;;;11.10;99.90;;;;;;5056377;28;20045;-31
2022/10/08 05:44:26;;;;;;;7.00;3.53;;;11.10;99.90;;;;;;5053784;28;20044;-31
2022/10/08 05:46:51;;;;;;;9.07;3.65;;;11.10;99.90;;;;;;5053712;28;20047;-31
2022/10/08 05:49:19;;;;;;;11.30;4.05;;;11.00;99.90;;;;;;5056615;28;20075;-29
2022/10/08 05:51:47;;;;;;;8.45;3.97;;;11.00;99.90;;;;;;5057575;28;20041;-30
2022/10/08 05:54:13;;;;;;;12.95;4.32;;;11.00;99.90;;;;;;5077415;28;20043;-29
2022/10/08 05:56:39;;;;;;;6.45;4.00;;;11.00;99.90;;;;;;5060300;28;20093;-30
2022/10/08 05:59:05;;;;;;;5.63;3.72;;;10.90;99.90;;;;;;5076587;28;20036;-29
2022/10/08 06:01:32;;;;;;;8.95;4.53;;;10.90;99.90;;;;;;5067938;28;20044;-30
2022/10/08 06:04:05;;;;;;;10.38;4.85;;;10.90;99.90;;;;;;5077298;28;20336;-30
2022/10/08 06:06:31;;;;;;;7.57;4.28;;;10.90;99.90;;;;;;5077307;28;20419;-30
2022/10/08 06:08:59;;;;;;;12.00;5.10;;;10.80;99.90;;;;;;5076992;28;20052;-30
2022/10/08 06:11:30;;;;;;;9.00;4.75;;;10.80;99.90;;;;;;5076815;28;20032;-29
2022/10/08 06:13:58;;;;;;;7.80;4.75;;;10.80;99.90;;;;;;5076813;28;20119;-30
2022/10/08 06:16:25;;;;;;;8.93;4.45;;;10.80;99.90;;;;;;5060169;28;20079;-29
2022/10/08 06:18:51;;;;;;;8.43;5.38;;;10.70;99.90;;;;;;5077095;28;20101;-30
2022/10/08 06:21:19;;;;;;;10.73;5.57;;;10.70;99.90;;;;;;5076780;28;20055;-31
2022/10/08 06:23:56;;;;;;;7.63;5.18;;;10.70;99.90;;;;;;5076560;28;20043;-29
2022/10/08 06:26:25;;;;;;;9.27;5.40;;;10.60;99.90;;;;;;5076527;28;20119;-29
2022/10/08 06:28:51;;;;;;;11.27;5.95;;;10.60;99.90;;;;;;5076901;28;20036;-30
2022/10/08 06:31:17;;;;;;;14.98;6.63;;;10.70;99.90;;;;;;5076563;28;20039;-29
2022/10/08 06:33:43;;;;;;;9.05;5.88;;;10.80;99.90;;;;;;5076545;28;20040;-30
2022/10/08 06:36:15;;;;;;;11.60;6.18;;;10.80;99.90;;;;;;5076665;28;20158;-29
2022/10/08 06:38:41;;;;;;;11.50;6.28;;;10.80;99.90;;;;;;5076772;28;20032;-29
2022/10/08 06:41:07;;;;;;;7.07;5.30;;;10.80;99.90;;;;;;5076660;28;20423;-30
2022/10/08 06:43:34;;;;;;;10.40;5.78;;;10.80;99.90;;;;;;5076092;28;20090;-29
2022/10/08 06:46:04;;;;;;;14.27;6.35;;;10.80;99.90;;;;;;5076943;28;20031;-29
2022/10/08 06:48:30;;;;;;;10.93;6.07;;;10.80;99.90;;;;;;5076477;28;20389;-29
2022/10/08 06:50:58;;;;;;;12.27;6.38;;;10.80;99.90;;;;;;5076091;28;20054;-30
2022/10/08 06:53:24;;;;;;;12.75;5.72;;;10.80;99.90;;;;;;5076091;28;20036;-29
2022/10/08 06:55:58;;;;;;;12.25;5.95;;;10.80;99.90;;;;;;5075901;28;20089;-29
2022/10/08 06:58:24;;;;;;;11.23;5.97;;;10.80;99.90;;;;;;5076233;28;20036;-30
2022/10/08 07:01:04;;;;;;;8.90;5.53;;;10.90;99.90;;;;;;5074791;28;20089;-30
2022/10/08 07:03:30;;;;;;;12.38;5.55;;;10.90;99.90;;;;;;5075902;28;20221;-29
2022/10/08 07:05:59;;;;;;;14.90;7.38;;;10.90;99.90;;;;;;5093719;28;20555;-29
2022/10/08 07:08:25;;;;;;;12.77;6.38;;;10.90;99.90;;;;;;5076150;28;20044;-29
2022/10/08 07:10:51;;;;;;;10.10;5.70;;;11.00;99.90;;;;;;5075885;28;20394;-30
2022/10/08 07:13:17;;;;;;;9.93;5.78;;;11.20;99.90;;;;;;5075918;28;20048;-29
2022/10/08 07:15:43;;;;;;;9.85;6.22;;;11.20;99.90;;;;;;5075780;28;20493;-28
2022/10/08 07:18:10;;;;;;;10.48;6.07;;;11.30;99.90;;;;;;5075896;28;20139;-29
2022/10/08 07:20:37;;;;;;;9.38;5.70;;;11.30;99.90;;;;;;5075906;28;20044;-30
2022/10/08 07:23:03;;;;;;;10.60;5.93;;;11.30;99.90;;;;;;5093858;28;20036;-29
2022/10/08 07:25:28;;;;;;;11.02;5.32;;;11.40;99.90;;;;;;5085317;28;20067;-30
2022/10/08 07:27:54;;;;;;;12.02;6.05;;;11.40;99.90;;;;;;5061546;28;20098;-29
2022/10/08 07:30:20;;;;;;;13.77;6.20;;;11.50;99.90;;;;;;5075356;28;20482;-29
2022/10/08 07:32:46;;;;;;;11.82;5.35;;;11.60;99.90;;;;;;5075112;28;20032;-28
2022/10/08 07:35:11;;;;;;;9.10;5.40;;;11.60;99.90;;;;;;5092662;28;20501;-30
2022/10/08 07:37:41;;;;;;;9.63;5.13;;;11.70;99.90;;;;;;5074852;28;20046;-30
2022/10/08 07:40:07;;;;;;;11.43;5.50;;;11.80;99.90;;;;;;5074670;28;20498;-29
2022/10/08 07:42:32;;;;;;;13.63;5.38;;;12.00;99.90;;;;;;5057964;28;20040;-28
2022/10/08 07:44:58;;;;;;;8.57;4.75;;;12.20;99.90;;;;;;5074400;28;20127;-29
2022/10/08 07:47:24;;;;;;;11.13;4.97;;;12.40;99.90;;;;;;5059434;28;20114;-31
2022/10/08 07:49:50;;;;;;;10.18;4.60;;;12.50;99.90;;;;;;5072418;28;20094;-33
2022/10/08 07:52:16;;;;;;;9.98;4.38;;;12.60;99.90;;;;;;5070920;28;20036;-34
2022/10/08 07:54:44;;;;;;;7.05;3.75;;;12.80;99.90;;;;;;5071484;28;20055;-30
2022/10/08 07:57:10;;;;;;;9.57;3.95;;;13.30;99.90;;;;;;5069507;28;20043;-30
2022/10/08 07:59:36;;;;;;;10.90;3.88;;;13.80;99.90;;;;;;5087030;28;20075;-31
2022/10/08 08:02:02;;;;;;;9.38;3.53;;;14.30;99.90;;;;;;5061179;28;20122;-30
2022/10/08 08:04:28;;;;;;;8.68;3.42;;;14.80;99.90;;;;;;5064768;28;20499;-29
2022/10/08 08:06:54;;;;;;;6.63;3.22;;;15.20;99.90;;;;;;5074119;28;20032;-29
2022/10/08 08:09:20;;;;;;;7.90;2.83;;;15.30;99.90;;;;;;5057326;28;20036;-29
2022/10/08 08:11:47;;;;;;;6.15;2.67;;;15.50;99.90;;;;;;5068935;28;20089;-30
2022/10/08 08:14:13;;;;;;;9.48;2.80;;;15.80;99.90;;;;;;5062811;28;20037;-30
2022/10/08 08:16:39;;;;;;;5.82;2.50;;;16.00;99.90;;;;;;5059803;28;20043;-30
2022/10/08 08:19:05;;;;;;;8.50;2.47;;;16.20;99.90;;;;;;5072675;28;20048;-30
2022/10/08 08:21:34;;;;;;;6.35;2.53;;;16.60;99.90;;;;;;5066276;28;20040;-30
2022/10/08 08:24:09;;;;;;;7.95;2.17;;;16.90;99.90;;;;;;5065665;28;20051;-30
2022/10/08 08:26:37;;;;;;;9.10;2.28;;;17.00;99.90;;;;;;5053898;28;20036;-30
2022/10/08 08:29:14;;;;;;;6.43;2.00;;;17.20;99.90;;;;;;5074139;28;20495;-31
2022/10/08 08:31:42;;;;;;;6.50;2.00;;;17.40;99.90;;;;;;5067778;28;20118;-31
2022/10/08 08:34:11;;;;;;;7.38;2.13;;;17.50;99.90;;;;;;5090844;28;20500;-32
2022/10/08 08:36:39;;;;;;;8.55;1.73;;;17.50;99.90;;;;;;5069733;28;20044;-31
2022/10/08 08:39:09;;;;;;;6.90;1.90;;;17.50;99.90;;;;;;5073651;28;20401;-30
2022/10/08 08:42:06;;;;;;;4.90;1.77;;;17.50;99.90;;;;;;5073711;28;20043;-31
2022/10/08 08:44:34;;;;;;;4.90;1.77;;;17.70;99.90;;;;;;5073145;28;20048;-32
2022/10/08 08:47:24;;;;;;;7.05;1.40;;;17.40;99.90;;;;;;5073601;28;20036;-32
2022/10/08 08:49:52;;;;;;;8.07;1.73;;;17.50;99.90;;;;;;5063745;28;20051;-31
2022/10/08 08:52:22;;;;;;;4.60;1.45;;;17.70;99.90;;;;;;5054499;28;20029;-30
2022/10/08 08:54:50;;;;;;;5.60;1.58;;;17.80;99.90;;;;;;5064823;28;20040;-30
2022/10/08 08:57:18;;;;;;;8.45;1.60;;;18.10;99.90;;;;;;5064676;28;20063;-32
2022/10/08 08:59:46;;;;;;;6.32;1.30;;;18.50;99.90;;;;;;5074621;28;20039;-31
2022/10/08 09:02:21;;;;;;;5.68;1.58;;;18.50;99.90;;;;;;5073759;28;20040;-31
2022/10/08 09:04:52;;;;;;;7.68;1.35;;;18.60;99.90;;;;;;5072129;28;20043;-32
2022/10/08 09:07:23;;;;;;;6.93;1.58;;;18.60;99.90;;;;;;5076353;28;20033;-31
2022/10/08 09:09:52;;;;;;;7.50;1.45;;;18.80;99.90;;;;;;5052181;28;20040;-32
2022/10/08 09:12:25;;;;;;;5.95;1.20;;;18.90;99.90;;;;;;5060939;28;20032;-30
2022/10/08 09:14:54;;;;;;;7.78;1.55;;;18.70;99.90;;;;;;5071577;28;20051;-31
2022/10/08 09:17:34;;;;;;;5.35;1.50;;;18.50;99.90;;;;;;5071678;28;20036;-30
2022/10/08 09:20:00;;;;;;;4.03;1.55;;;18.50;99.90;;;;;;5066772;28;20058;-32
2022/10/08 09:22:39;;;;;;;5.63;1.85;;;18.60;99.90;;;;;;5055552;28;20389;-30
2022/10/08 09:25:20;;;;;;;4.22;1.48;;;19.00;99.90;;;;;;5077819;28;20035;-30
2022/10/08 09:27:49;;;;;;;5.20;1.20;;;19.20;99.90;;;;;;5077515;28;20074;-31
2022/10/08 09:30:27;;;;;;;7.20;1.63;;;19.70;99.90;;;;;;5078033;28;20427;-32
2022/10/08 09:32:55;;;;;;;6.65;1.55;;;19.60;99.90;;;;;;5060835;28;20093;-30
2022/10/08 09:35:22;;;;;;;6.07;1.77;;;19.50;99.90;;;;;;5077688;28;20038;-31
2022/10/08 09:37:50;;;;;;;3.38;1.20;;;19.40;99.90;;;;;;5077624;28;20172;-31
2022/10/08 09:40:25;;;;;;;3.25;1.40;;;19.30;99.90;;;;;;5077645;28;20040;-32
2022/10/08 09:43:10;;;;;;;5.03;1.08;;;19.00;99.90;;;;;;5077419;28;20037;-30
2022/10/08 09:45:41;;;;;;;6.57;1.30;;;18.60;99.90;;;;;;5076532;28;20194;-32
2022/10/08 09:48:11;;;;;;;5.55;1.42;;;19.00;99.90;;;;;;5092482;28;20101;-30
2022/10/08 09:50:45;;;;;;;4.07;1.10;;;19.00;99.90;;;;;;5077199;28;20039;-30
2022/10/08 09:53:11;;;;;;;3.15;0.90;;;18.40;99.90;;;;;;5077550;28;20492;-31
2022/10/08 09:55:37;;;;;;;5.07;0.93;;;17.80;99.90;;;;;;5065565;28;20115;-31
2022/10/08 09:58:04;;;;;;;4.38;1.20;;;17.30;99.90;;;;;;5066084;28;20040;-32
2022/10/08 10:00:31;;;;;;;5.28;1.20;;;16.90;99.90;;;;;;5076301;28;20040;-30
2022/10/08 10:02:59;;;;;;;5.82;1.38;;;16.60;99.90;;;;;;5063312;28;20048;-35
2022/10/08 10:05:28;;;;;;;3.22;1.35;;;16.50;99.90;;;;;;5068475;28;20427;-33
2022/10/08 10:07:54;;;;;;;3.40;1.10;;;17.00;99.90;;;;;;5073959;28;20043;-31
2022/10/08 10:10:32;;;;;;;4.20;1.38;;;17.70;99.90;;;;;;5069500;28;20389;-33
2022/10/08 10:13:27;;;;;;;7.03;1.42;;;18.20;99.90;;;;;;5062182;28;20160;-34
2022/10/08 10:16:00;;;;;;;5.07;1.20;;;18.90;99.90;;;;;;5067391;28;20035;-33
2022/10/08 10:18:46;;;;;;;5.15;1.08;;;19.50;97.30;;;;;;5044897;28;20486;-34
2022/10/08 10:21:17;;;;;;;5.40;1.52;;;19.60;99.90;;;;;;5065722;28;20044;-34
2022/10/08 10:24:00;;;;;;;3.05;1.00;;;19.60;98.10;;;;;;5058721;28;20059;-34
2022/10/08 10:26:33;;;;;;;5.03;1.17;;;19.10;91.90;;;;;;5065521;28;20645;-32
2022/10/08 10:29:17;;;;;;;5.53;1.23;;;18.50;98.70;;;;;;5068200;28;20119;-34
2022/10/08 10:31:48;;;;;;;;;;;18.50;99.90;;;;;;5060940;28;20098;-34
2022/10/08 10:34:24;;;;;;;4.70;1.10;;;18.50;95.90;;;;;;5060652;28;19970;-36
2022/10/08 10:36:54;;;;;;;3.95;1.38;;;18.90;99.90;;;;;;5071397;28;20570;-35
2022/10/08 10:39:41;;;;;;;2.75;0.80;;;19.30;97.90;;;;;;5069329;28;20401;-32
2022/10/08 10:42:16;;;;;;;6.00;2.15;;;19.70;91.50;;;;;;5071711;28;20040;-35
2022/10/08 10:44:57;;;;;;;2.75;1.20;;;19.80;90.40;;;;;;5073127;28;20040;-35
2022/10/08 10:47:27;;;;;;;4.65;1.15;;;20.20;98.20;;;;;;5064055;28;20040;-35
2022/10/08 10:49:53;;;;;;;3.42;1.10;;;20.70;94.10;;;;;;5064148;28;20358;-35
2022/10/08 10:52:47;;;;;;;5.32;1.23;;;21.10;92.50;;;;;;5059823;28;20039;-34
2022/10/08 10:55:34;;;;;;;4.00;0.98;;;20.20;75.20;;;;;;5057907;28;20037;-34
2022/10/08 10:58:30;;;;;;;2.65;0.80;;;19.30;99.00;;;;;;5069171;28;20044;-33
2022/10/08 11:01:25;;;;;;;4.30;0.88;;;18.30;99.90;;;;;;5069142;28;20282;-32
2022/10/08 11:04:00;;;;;;;4.07;1.15;;;17.70;99.90;;;;;;5067514;28;20044;-37
2022/10/08 11:06:26;;;;;;;4.55;1.25;;;17.00;99.90;;;;;;5072505;28;20048;-33
2022/10/08 11:08:55;;;;;;;4.95;1.15;;;16.40;99.90;;;;;;5070576;28;20044;-32
2022/10/08 11:11:31;;;;;;;5.55;1.20;;;16.10;99.90;;;;;;5063878;28;20032;-35
2022/10/08 11:14:03;;;;;;;6.22;1.60;;;15.70;99.90;;;;;;5063147;28;20080;-35
2022/10/08 11:16:47;;;;;;;5.90;1.40;;;15.40;99.90;;;;;;5069413;28;20072;-34
2022/10/08 11:19:36;;;;;;;4.38;1.52;;;15.50;99.90;;;;;;5056321;28;20044;-33
2022/10/08 11:22:37;;;;;;;5.28;1.15;;;16.10;99.90;;;;;;5067627;28;20568;-34
2022/10/08 11:25:25;;;;;;;5.07;1.48;;;17.00;99.90;;;;;;5068997;28;20067;-31
2022/10/08 11:28:09;;;;;;;5.13;1.20;;;17.90;99.90;;;;;;5061198;28;20036;-33
2022/10/08 11:31:07;;;;;;;4.60;1.63;;;18.30;99.90;;;;;;5079303;28;20037;-37
2022/10/08 11:33:33;;;;;;;3.78;1.00;;;18.80;99.90;;;;;;5012795;28;20054;-35
2022/10/08 11:36:23;;;;;;;4.15;1.20;;;19.40;99.40;;;;;;5063091;28;20547;-32
2022/10/08 11:39:06;;;;;;;3.20;0.93;;;19.80;89.40;;;;;;5059792;28;20029;-35
2022/10/08 11:42:09;;;;;;;6.53;0.93;;;19.80;84.10;;;;;;5071204;28;20499;-36
2022/10/08 11:44:36;;;;;;;2.13;0.97;;;20.30;90.00;;;;;;5037582;28;20044;-33
2022/10/08 11:47:35;;;;;;;6.40;1.40;;;20.30;91.30;;;;;;5057396;28;20074;-33
2022/10/08 11:50:04;;;;;;;6.45;1.40;;;20.50;69.60;;;;;;5070210;28;20111;-34
2022/10/08 11:52:32;;;;;;;3.67;1.35;;;20.60;72.90;;;;;;5067589;28;20123;-33
2022/10/08 11:55:03;;;;;;;5.65;1.27;;;20.40;86.80;;;;;;5058961;28;20041;-35
2022/10/08 11:57:34;;;;;;;4.47;1.40;;;20.30;88.40;;;;;;5078477;28;20056;-34
2022/10/08 12:00:32;;;;;;;6.05;1.30;;;20.20;82.50;;;;;;5065041;28;20050;-32
2022/10/08 12:02:59;;;;;;;6.60;1.40;;;20.40;77.30;;;;;;5047725;28;20049;-34
2022/10/08 12:05:48;;;;;;;3.67;1.08;;;20.70;84.20;;;;;;5067401;28;20067;-34
2022/10/08 12:08:53;;;;;;;4.90;1.52;;;21.50;62.40;;;;;;5046813;28;20082;-34
2022/10/08 12:11:31;;;;;;;3.38;1.10;;;22.50;59.60;;;;;;5061347;28;20039;-35
2022/10/08 12:14:13;;;;;;;5.25;1.30;;;23.10;54.80;;;;;;5083839;28;20044;-33
2022/10/08 12:17:08;;;;;;;6.03;1.50;;;23.40;54.80;;;;;;5038798;28;20040;-34
2022/10/08 12:19:37;;;;;;;4.15;1.20;;;23.70;54.10;;;;;;5060144;28;20047;-34
2022/10/08 12:22:08;;;;;;;4.50;1.20;;;24.00;52.60;;;;;;5073365;28;20040;-35
2022/10/08 12:24:37;;;;;;;3.55;1.23;;;24.50;52.40;;;;;;5070202;28;20050;-34
2022/10/08 12:27:15;;;;;;;4.25;1.35;;;25.10;50.90;;;;;;5066519;28;20051;-34
2022/10/08 12:30:06;;;;;;;3.85;1.02;;;25.10;45.60;;;;;;5067769;28;20070;-35
2022/10/08 12:32:38;;;;;;;3.90;1.20;;;24.40;47.00;;;;;;5050752;28;20036;-35
2022/10/08 12:35:05;;;;;;;3.75;1.25;;;24.30;47.50;;;;;;5078360;28;20040;-35
2022/10/08 12:37:33;;;;;;;5.38;1.00;;;24.60;47.70;;;;;;5067862;28;20036;-34
2022/10/08 12:40:11;;;;;;;4.50;1.00;;;24.40;47.70;;;;;;5064078;28;20129;-34
2022/10/08 12:42:38;;;;;;;4.13;1.38;;;24.30;47.70;;;;;;5071349;28;20085;-34
2022/10/08 12:45:07;;;;;;;4.22;1.20;;;24.20;47.20;;;;;;5072655;28;20123;-34
2022/10/08 12:47:48;;;;;;;7.63;1.40;;;24.20;47.50;;;;;;5074294;28;20047;-33
2022/10/08 12:50:42;;;;;;;6.22;1.30;;;23.70;44.10;;;;;;5069943;28;20508;-33
2022/10/08 12:53:12;;;;;;;4.07;1.30;;;23.80;44.60;;;;;;5064988;28;20063;-33
2022/10/08 12:55:51;;;;;;;33.60;8.07;;;24.20;46.60;;;;;;5067991;28;20032;-33
2022/10/08 12:58:22;;;;;;;45.70;11.65;;;23.90;45.20;;;;;;5067361;28;20040;-34
2022/10/08 13:00:55;;;;;;;11.70;3.33;;;23.70;46.40;;;;;;5069132;28;20032;-33
2022/10/08 13:03:21;;;;;;;6.82;1.45;;;22.90;47.20;;;;;;5079895;28;20043;-38
2022/10/08 13:05:48;;;;;;;5.35;1.50;;;21.90;48.60;;;;;;5054557;28;21459;-36
2022/10/08 13:08:29;;;;;;;3.38;1.30;;;21.50;50.60;;;;;;5065945;28;20036;-33
2022/10/08 13:10:57;;;;;;;5.22;1.60;;;22.10;51.30;;;;;;5069538;28;20035;-33